createdAt,value
2023-01-21T00:01:12.432Z,12.88
2023-01-21T00:03:40.484Z,12.75
2023-01-21T00:06:09.359Z,13.70
2023-01-21T00:08:37.105Z,12.27
2023-01-21T00:11:09.796Z,11.73
2023-01-21T00:13:37.561Z,12.37
2023-01-21T00:16:06.141Z,13.43
2023-01-21T00:18:35.069Z,12.32
2023-01-21T00:21:03.241Z,13.05
2023-01-21T00:23:30.955Z,12.70
2023-01-21T00:26:03.710Z,14.85
2023-01-21T00:28:33.105Z,12.50
2023-01-21T00:31:02.977Z,12.30
2023-01-21T00:33:31.784Z,10.63
2023-01-21T00:36:11.027Z,12.18
2023-01-21T00:38:39.145Z,11.12
2023-01-21T00:41:09.997Z,12.52
2023-01-21T00:43:38.108Z,12.63
2023-01-21T00:46:06.294Z,11.55
2023-01-21T00:48:34.438Z,12.77
2023-01-21T00:51:02.192Z,12.15
2023-01-21T00:53:31.924Z,12.20
2023-01-21T00:56:07.368Z,12.13
2023-01-21T00:58:35.584Z,9.70
2023-01-21T01:01:05.957Z,12.45
2023-01-21T01:03:34.535Z,10.63
2023-01-21T01:06:04.238Z,11.45
2023-01-21T01:08:32.087Z,11.32
2023-01-21T01:10:59.962Z,10.77
2023-01-21T01:13:28.914Z,8.13
2023-01-21T01:15:58.685Z,12.95
2023-01-21T01:18:28.045Z,10.20
2023-01-21T01:20:55.944Z,10.40
2023-01-21T01:23:23.672Z,10.93
2023-01-21T01:25:59.845Z,11.90
2023-01-21T01:28:28.280Z,14.38
2023-01-21T01:30:56.086Z,12.43
2023-01-21T01:33:24.097Z,14.98
2023-01-21T01:35:51.946Z,10.38
2023-01-21T01:38:22.321Z,13.48
2023-01-21T01:40:52.125Z,13.00
2023-01-21T01:43:25.446Z,15.50
2023-01-21T01:45:54.074Z,15.45
2023-01-21T01:48:30.992Z,12.70
2023-01-21T01:51:02.388Z,17.37
2023-01-21T01:53:33.117Z,15.93
2023-01-21T01:56:01.493Z,15.25
2023-01-21T01:58:31.539Z,12.02
2023-01-21T02:01:00.589Z,12.75
2023-01-21T02:03:46.490Z,11.73
2023-01-21T02:06:16.262Z,15.98
2023-01-21T02:08:46.698Z,17.90
2023-01-21T02:11:17.235Z,15.18
2023-01-21T02:13:49.751Z,16.48
2023-01-21T02:16:39.259Z,19.65
2023-01-21T02:19:41.985Z,16.67
2023-01-21T02:22:28.529Z,18.20
2023-01-21T02:25:20.509Z,16.48
2023-01-21T02:28:14.045Z,13.57
2023-01-21T02:30:54.538Z,14.68
2023-01-21T02:33:42.494Z,15.30
2023-01-21T02:36:27.942Z,17.55
2023-01-21T02:39:21.011Z,15.05
2023-01-21T02:42:07.624Z,16.25
2023-01-21T02:44:35.146Z,17.58
2023-01-21T02:47:34.495Z,14.73
2023-01-21T02:50:28.802Z,16.37
2023-01-21T02:53:02.001Z,14.00
2023-01-21T02:55:34.482Z,18.05
2023-01-21T02:58:06.564Z,18.15
2023-01-21T03:00:52.848Z,17.15
2023-01-21T03:03:34.344Z,15.70
2023-01-21T03:06:08.101Z,16.40
2023-01-21T03:09:05.214Z,14.50
2023-01-21T03:11:33.574Z,16.62
2023-01-21T03:14:58.436Z,15.00
2023-01-21T03:17:36.345Z,16.85
2023-01-21T03:20:13.904Z,13.73
2023-01-21T03:22:43.002Z,15.23
2023-01-21T03:25:14.062Z,19.98
2023-01-21T03:27:45.937Z,18.05
2023-01-21T03:30:17.317Z,17.40
2023-01-21T03:32:49.681Z,18.27
2023-01-21T03:35:25.110Z,17.27
2023-01-21T03:38:14.438Z,15.23
2023-01-21T03:40:51.473Z,17.45
2023-01-21T03:43:19.232Z,20.15
2023-01-21T03:46:05.490Z,17.08
2023-01-21T03:48:48.398Z,16.40
2023-01-21T03:51:24.612Z,14.55
2023-01-21T03:53:59.961Z,13.85
2023-01-21T03:56:28.209Z,18.17
2023-01-21T03:58:56.188Z,16.35
2023-01-21T04:01:24.100Z,14.65
2023-01-21T04:03:51.755Z,15.23
2023-01-21T04:06:22.213Z,19.90
2023-01-21T04:08:50.086Z,13.60
2023-01-21T04:11:18.331Z,20.42
2023-01-21T04:13:46.114Z,20.98
2023-01-21T04:16:13.874Z,23.17
2023-01-21T04:18:41.500Z,15.70
2023-01-21T04:21:09.428Z,21.80
2023-01-21T04:23:37.084Z,19.45
2023-01-21T04:26:04.851Z,23.15
2023-01-21T04:28:32.570Z,20.20
2023-01-21T04:31:00.628Z,21.17
2023-01-21T04:33:28.265Z,18.55
2023-01-21T04:36:02.389Z,23.23
2023-01-21T04:38:30.117Z,17.58
2023-01-21T04:40:57.962Z,18.75
2023-01-21T04:43:25.669Z,18.30
2023-01-21T04:45:53.582Z,15.65
2023-01-21T04:48:21.367Z,16.27
2023-01-21T04:50:49.164Z,20.88
2023-01-21T04:53:16.903Z,21.52
2023-01-21T04:55:44.707Z,17.70
2023-01-21T04:58:12.387Z,18.67
2023-01-21T05:00:40.056Z,20.75
2023-01-21T05:03:07.697Z,24.30
2023-01-21T05:05:35.377Z,26.08
2023-01-21T05:08:03.060Z,25.55
2023-01-21T05:10:30.773Z,26.23
2023-01-21T05:12:59.543Z,24.25
2023-01-21T05:15:27.253Z,26.98
2023-01-21T05:17:55.027Z,17.12
2023-01-21T05:20:22.764Z,18.30
2023-01-21T05:22:50.646Z,20.67
2023-01-21T05:25:18.398Z,23.92
2023-01-21T05:27:52.219Z,19.85
2023-01-21T05:30:20.168Z,22.75
2023-01-21T05:32:55.000Z,24.48
2023-01-21T05:35:24.221Z,26.62
2023-01-21T05:37:52.081Z,24.12
2023-01-21T05:40:20.207Z,20.48
2023-01-21T05:42:48.280Z,23.50
2023-01-21T05:45:16.178Z,17.27
2023-01-21T05:47:44.153Z,23.33
2023-01-21T05:50:12.591Z,22.23
2023-01-21T05:52:41.094Z,21.62
2023-01-21T05:55:09.332Z,22.95
2023-01-21T05:57:37.104Z,20.02
2023-01-21T06:00:05.867Z,17.05
2023-01-21T06:02:33.638Z,23.50
2023-01-21T06:05:01.489Z,24.15
2023-01-21T06:07:29.177Z,20.60
2023-01-21T06:09:56.889Z,22.58
2023-01-21T06:12:24.939Z,23.92
2023-01-21T06:14:52.724Z,18.65
2023-01-21T06:17:20.407Z,24.42
2023-01-21T06:19:48.185Z,17.40
2023-01-21T06:22:17.520Z,18.85
2023-01-21T06:24:46.230Z,20.35
2023-01-21T06:27:13.935Z,17.30
2023-01-21T06:29:41.718Z,22.52
2023-01-21T06:32:09.453Z,17.10
2023-01-21T06:34:37.176Z,23.12
2023-01-21T06:37:05.120Z,20.60
2023-01-21T06:39:32.816Z,21.60
2023-01-21T06:42:00.706Z,19.37
2023-01-21T06:44:28.409Z,23.42
2023-01-21T06:47:03.327Z,20.17
2023-01-21T06:49:31.100Z,21.08
2023-01-21T06:51:59.858Z,19.75
2023-01-21T06:54:30.294Z,22.08
2023-01-21T06:56:58.495Z,17.52
2023-01-21T06:59:26.366Z,23.62
2023-01-21T07:01:54.623Z,24.40
2023-01-21T07:04:22.555Z,19.50
2023-01-21T07:06:50.926Z,20.27
2023-01-21T07:09:18.767Z,13.98
2023-01-21T07:11:46.686Z,15.40
2023-01-21T07:14:14.421Z,17.65
2023-01-21T07:16:42.290Z,19.35
2023-01-21T07:19:10.008Z,21.67
2023-01-21T07:21:37.677Z,18.87
2023-01-21T07:24:05.530Z,23.58
2023-01-21T07:26:37.204Z,19.87
2023-01-21T07:29:07.507Z,18.02
2023-01-21T07:31:35.976Z,19.65
2023-01-21T07:34:04.719Z,15.30
2023-01-21T07:36:32.669Z,16.65
2023-01-21T07:39:00.609Z,22.60
2023-01-21T07:41:28.505Z,17.80
2023-01-21T07:43:56.213Z,22.00
2023-01-21T07:46:24.726Z,20.02
2023-01-21T07:48:52.962Z,21.80
2023-01-21T07:51:21.366Z,21.77
2023-01-21T07:53:49.211Z,20.98
2023-01-21T07:56:19.106Z,19.87
2023-01-21T07:58:48.197Z,19.15
2023-01-21T08:01:16.020Z,19.83
2023-01-21T08:03:43.818Z,22.83
2023-01-21T08:06:11.548Z,24.02
2023-01-21T08:08:39.264Z,20.80
2023-01-21T08:11:07.114Z,24.77
2023-01-21T08:13:34.880Z,18.73
2023-01-21T08:16:02.575Z,19.98
2023-01-21T08:18:30.449Z,20.02
2023-01-21T08:21:02.357Z,21.60
2023-01-21T08:23:30.495Z,18.98
2023-01-21T08:25:58.261Z,18.95
2023-01-21T08:28:26.021Z,18.33
2023-01-21T08:30:53.827Z,17.42
2023-01-21T08:33:21.647Z,17.95
2023-01-21T08:35:49.354Z,17.52
2023-01-21T08:38:17.085Z,20.25
2023-01-21T08:40:44.855Z,13.93
2023-01-21T08:43:12.606Z,21.02
2023-01-21T08:45:40.353Z,15.82
2023-01-21T08:48:08.965Z,17.25
2023-01-21T08:50:36.658Z,19.45
2023-01-21T08:53:04.441Z,14.82
2023-01-21T08:55:32.280Z,13.62
2023-01-21T08:58:00.647Z,18.55
2023-01-21T09:00:28.571Z,13.62
2023-01-21T09:02:57.009Z,15.88
2023-01-21T09:05:24.649Z,17.70
2023-01-21T09:07:52.499Z,13.73
2023-01-21T09:10:39.329Z,16.42
2023-01-21T09:13:08.638Z,17.90
2023-01-21T09:15:43.811Z,14.87
2023-01-21T09:18:11.527Z,17.85
2023-01-21T09:20:40.811Z,18.62
2023-01-21T09:23:27.859Z,13.68
2023-01-21T09:26:05.026Z,15.50
2023-01-21T09:28:35.146Z,15.32
2023-01-21T09:31:14.997Z,15.35
2023-01-21T09:33:46.110Z,16.40
2023-01-21T09:36:20.320Z,13.95
2023-01-21T09:38:49.356Z,14.07
2023-01-21T09:41:37.961Z,15.88
2023-01-21T09:44:27.184Z,13.50
2023-01-21T09:47:27.301Z,12.05
2023-01-21T09:50:06.856Z,13.50
2023-01-21T09:52:40.644Z,16.52
2023-01-21T09:55:33.111Z,14.15
2023-01-21T09:58:19.320Z,15.18
2023-01-21T10:00:53.778Z,11.90
2023-01-21T10:03:45.479Z,11.10
2023-01-21T10:06:32.649Z,13.40
2023-01-21T10:09:27.571Z,13.07
2023-01-21T10:12:05.200Z,7.87
2023-01-21T10:15:14.188Z,11.25
2023-01-21T10:18:05.296Z,10.48
2023-01-21T10:20:57.565Z,9.93
2023-01-21T10:23:36.594Z,9.85
2023-01-21T10:26:10.204Z,9.38
2023-01-21T10:28:42.917Z,8.25
2023-01-21T10:31:33.870Z,11.00
2023-01-21T10:34:01.678Z,10.60
2023-01-21T10:37:00.064Z,10.07
2023-01-21T10:39:35.404Z,8.27
2023-01-21T10:42:05.761Z,12.10
2023-01-21T10:44:59.928Z,10.82
2023-01-21T10:47:30.365Z,10.25
2023-01-21T10:50:22.170Z,10.45
2023-01-21T10:53:11.674Z,10.45
2023-01-21T10:55:51.077Z,11.88
2023-01-21T10:58:26.571Z,10.80
2023-01-21T11:00:57.632Z,10.95
2023-01-21T11:03:39.939Z,9.38
2023-01-21T11:06:10.392Z,12.40
2023-01-21T11:08:39.576Z,10.63
2023-01-21T11:11:09.695Z,10.77
2023-01-21T11:13:37.489Z,11.38
2023-01-21T11:16:06.053Z,11.07
2023-01-21T11:18:41.630Z,10.98
2023-01-21T11:21:26.854Z,12.48
2023-01-21T11:24:03.292Z,10.10
2023-01-21T11:26:33.903Z,11.10
2023-01-21T11:29:10.624Z,11.50
2023-01-21T11:31:39.089Z,11.73
2023-01-21T11:34:21.635Z,11.63
2023-01-21T11:36:56.907Z,15.77
2023-01-21T11:39:30.156Z,12.77
2023-01-21T11:42:05.279Z,13.98
2023-01-21T11:44:34.576Z,13.62
2023-01-21T11:47:02.549Z,14.27
2023-01-21T11:49:34.199Z,17.73
2023-01-21T11:52:28.362Z,14.25
2023-01-21T11:54:56.023Z,13.05
2023-01-21T11:57:42.163Z,15.50
2023-01-21T12:00:23.708Z,16.62
2023-01-21T12:02:57.688Z,17.25
2023-01-21T12:05:34.538Z,18.95
2023-01-21T12:08:06.135Z,18.35
2023-01-21T12:10:46.547Z,13.90
2023-01-21T12:13:25.033Z,15.35
2023-01-21T12:16:04.866Z,14.75
2023-01-21T12:19:04.547Z,14.98
2023-01-21T12:21:42.125Z,15.80
2023-01-21T12:24:45.609Z,14.38
2023-01-21T12:27:31.970Z,14.93
2023-01-21T12:30:02.315Z,15.65
2023-01-21T12:32:39.547Z,13.23
2023-01-21T12:35:50.060Z,13.20
2023-01-21T12:38:26.982Z,13.95
2023-01-21T12:41:27.582Z,14.50
2023-01-21T12:44:15.487Z,15.20
2023-01-21T12:46:48.376Z,16.75
2023-01-21T12:49:22.754Z,13.88
2023-01-21T12:51:55.705Z,18.20
2023-01-21T12:54:49.793Z,14.98
2023-01-21T12:57:40.439Z,15.40
2023-01-21T13:00:21.986Z,13.05
2023-01-21T13:02:57.755Z,12.82
2023-01-21T13:05:55.956Z,18.10
2023-01-21T13:08:38.824Z,16.23
2023-01-21T13:11:22.712Z,17.40
2023-01-21T13:14:08.688Z,13.85
2023-01-21T13:16:40.856Z,12.88
2023-01-21T13:19:13.834Z,12.37
2023-01-21T13:22:10.077Z,11.77
2023-01-21T13:25:03.076Z,12.25
2023-01-21T13:27:53.092Z,10.88
2023-01-21T13:30:37.576Z,13.80
2023-01-21T13:33:29.602Z,14.18
2023-01-21T13:36:24.669Z,13.88
2023-01-21T13:39:30.063Z,14.30
2023-01-21T13:42:14.176Z,12.00
2023-01-21T13:45:00.099Z,13.10
2023-01-21T13:47:59.880Z,12.82
2023-01-21T13:50:52.481Z,13.35
2023-01-21T13:53:42.151Z,11.50
2023-01-21T13:56:12.407Z,13.25
2023-01-21T13:58:53.078Z,10.80
2023-01-21T14:01:45.539Z,13.95
2023-01-21T14:04:27.212Z,11.38
2023-01-21T14:07:28.920Z,14.10
2023-01-21T14:10:16.204Z,12.75
2023-01-21T14:13:11.702Z,10.75
2023-01-21T14:16:08.567Z,12.20
2023-01-21T14:18:54.800Z,11.70
2023-01-21T14:21:50.423Z,12.02
2023-01-21T14:24:32.121Z,14.75
2023-01-21T14:27:26.952Z,10.57
2023-01-21T14:30:16.255Z,9.23
2023-01-21T14:32:54.398Z,16.35
2023-01-21T14:35:37.265Z,11.57
2023-01-21T14:38:35.496Z,13.07
2023-01-21T14:41:13.845Z,11.57
2023-01-21T14:43:45.493Z,14.15
2023-01-21T14:46:25.397Z,13.82
2023-01-21T14:49:13.043Z,12.00
2023-01-21T14:51:51.055Z,10.77
2023-01-21T14:54:28.225Z,13.13
2023-01-21T14:57:10.221Z,14.32
2023-01-21T14:59:47.273Z,10.63
2023-01-21T15:02:42.422Z,11.77
2023-01-21T15:05:19.622Z,15.80
2023-01-21T15:07:51.959Z,12.60
2023-01-21T15:10:22.611Z,11.07
2023-01-21T15:12:55.045Z,13.95
2023-01-21T15:15:40.925Z,16.52
2023-01-21T15:18:11.574Z,11.43
2023-01-21T15:20:59.723Z,14.52
2023-01-21T15:23:30.433Z,10.60
2023-01-21T15:26:10.402Z,11.77
2023-01-21T15:28:50.662Z,13.40
2023-01-21T15:31:21.568Z,12.00
2023-01-21T15:34:10.673Z,14.93
2023-01-21T15:36:48.211Z,10.88
2023-01-21T15:39:28.830Z,12.27
2023-01-21T15:42:26.815Z,11.50
2023-01-21T15:45:21.995Z,11.07
2023-01-21T15:47:58.716Z,12.13
2023-01-21T15:50:36.359Z,9.68
2023-01-21T15:53:31.205Z,11.12
2023-01-21T15:56:17.100Z,10.30
2023-01-21T15:58:47.707Z,10.05
2023-01-21T16:01:30.777Z,10.30
2023-01-21T16:04:13.931Z,10.30
2023-01-21T16:07:19.053Z,11.40
2023-01-21T16:09:56.069Z,12.30
2023-01-21T16:12:44.834Z,9.13
2023-01-21T16:15:24.641Z,11.12
2023-01-21T16:18:09.578Z,12.63
2023-01-21T16:20:37.913Z,10.93
2023-01-21T16:23:08.790Z,10.20
2023-01-21T16:25:47.474Z,11.95
2023-01-21T16:28:15.567Z,11.90
2023-01-21T16:30:54.386Z,11.55
2023-01-21T16:33:22.226Z,11.20
2023-01-21T16:35:59.433Z,9.98
2023-01-21T16:38:32.513Z,11.93
2023-01-21T16:41:24.945Z,10.88
2023-01-21T16:43:56.883Z,11.27
2023-01-21T16:46:33.882Z,8.40
2023-01-21T16:49:05.789Z,10.43
2023-01-21T16:51:36.699Z,9.18
2023-01-21T16:54:29.307Z,7.45
2023-01-21T16:56:58.843Z,9.00
2023-01-21T16:59:45.744Z,10.15
2023-01-21T17:02:24.474Z,16.23
2023-01-21T17:04:52.486Z,8.85
2023-01-21T17:07:28.901Z,25.40
2023-01-21T17:10:09.686Z,15.05
2023-01-21T17:12:38.002Z,7.65
2023-01-21T17:15:19.259Z,8.00
2023-01-21T17:17:47.443Z,7.75
2023-01-21T17:20:55.705Z,9.07
2023-01-21T17:23:37.035Z,6.40
2023-01-21T17:26:07.706Z,5.00
2023-01-21T17:28:42.005Z,7.53
2023-01-21T17:31:24.015Z,7.28
2023-01-21T17:34:18.357Z,9.63
2023-01-21T17:36:48.255Z,6.80
2023-01-21T17:39:18.186Z,5.07
2023-01-21T17:41:46.771Z,7.70
2023-01-21T17:44:23.173Z,5.03
2023-01-21T17:46:55.721Z,4.95
2023-01-21T17:49:25.726Z,6.80
2023-01-21T17:51:57.655Z,5.60
2023-01-21T17:54:28.072Z,5.60
2023-01-21T17:57:00.898Z,8.80
2023-01-21T17:59:43.251Z,9.95
2023-01-21T18:02:17.345Z,8.13
2023-01-21T18:04:45.147Z,9.18
2023-01-21T18:07:23.915Z,8.32
2023-01-21T18:09:52.856Z,7.12
2023-01-21T18:12:21.103Z,8.65
2023-01-21T18:14:49.176Z,8.23
2023-01-21T18:17:20.147Z,8.43
2023-01-21T18:19:48.174Z,8.13
2023-01-21T18:22:24.230Z,8.00
2023-01-21T18:24:52.105Z,9.18
2023-01-21T18:27:21.727Z,7.43
2023-01-21T18:29:49.599Z,10.23
2023-01-21T18:32:18.304Z,7.10
2023-01-21T18:34:47.940Z,8.80
2023-01-21T18:37:18.409Z,8.52
2023-01-21T18:39:46.778Z,5.68
2023-01-21T18:42:16.474Z,7.68
2023-01-21T18:44:44.293Z,8.93
2023-01-21T18:47:16.671Z,6.80
2023-01-21T18:49:45.426Z,7.82
2023-01-21T18:52:18.594Z,7.95
2023-01-21T18:54:46.818Z,8.30
2023-01-21T18:57:21.133Z,6.37
2023-01-21T18:59:49.365Z,7.82
2023-01-21T19:02:20.226Z,8.45
2023-01-21T19:04:48.671Z,7.65
2023-01-21T19:07:17.331Z,7.60
2023-01-21T19:09:48.003Z,7.37
2023-01-21T19:12:18.073Z,6.35
2023-01-21T19:14:46.400Z,6.45
2023-01-21T19:17:16.836Z,7.25
2023-01-21T19:19:44.639Z,7.62
2023-01-21T19:22:16.484Z,5.10
2023-01-21T19:24:44.305Z,6.97
2023-01-21T19:27:29.567Z,8.13
2023-01-21T19:29:57.499Z,6.35
2023-01-21T19:32:25.231Z,6.80
2023-01-21T19:34:53.143Z,6.72
2023-01-21T19:37:24.375Z,6.57
2023-01-21T19:39:52.069Z,7.28
2023-01-21T19:42:19.850Z,9.07
2023-01-21T19:44:47.565Z,8.98
2023-01-21T19:47:21.961Z,7.45
2023-01-21T19:49:49.683Z,6.12
2023-01-21T19:52:17.368Z,7.97
2023-01-21T19:54:45.107Z,8.10
2023-01-21T19:57:19.175Z,9.18
2023-01-21T19:59:49.099Z,8.48
2023-01-21T20:02:16.872Z,10.43
2023-01-21T20:04:44.645Z,6.70
2023-01-21T20:07:16.999Z,7.22
2023-01-21T20:09:44.753Z,6.57
2023-01-21T20:12:14.089Z,8.50
2023-01-21T20:14:41.956Z,7.37
2023-01-21T20:17:14.486Z,9.30
2023-01-21T20:19:42.437Z,7.90
2023-01-21T20:22:11.639Z,6.95
2023-01-21T20:24:39.382Z,9.65
2023-01-21T20:27:09.639Z,7.12
2023-01-21T20:29:44.390Z,8.30
2023-01-21T20:32:12.436Z,7.12
2023-01-21T20:34:40.128Z,7.75
2023-01-21T20:37:07.858Z,7.03
2023-01-21T20:39:35.571Z,7.85
2023-01-21T20:42:03.262Z,8.55
2023-01-21T20:44:31.147Z,7.28
2023-01-21T20:47:01.820Z,6.57
2023-01-21T20:49:29.551Z,6.75
2023-01-21T20:51:57.492Z,6.62
2023-01-21T20:54:26.010Z,6.15
2023-01-21T20:56:53.726Z,5.55
2023-01-21T20:59:22.928Z,7.20
2023-01-21T21:01:52.722Z,6.47
2023-01-21T21:04:20.567Z,7.87
2023-01-21T21:06:48.375Z,5.45
2023-01-21T21:09:16.162Z,6.78
2023-01-21T21:11:44.240Z,5.07
2023-01-21T21:14:14.159Z,6.30
2023-01-21T21:16:41.941Z,6.18
2023-01-21T21:19:12.880Z,5.55
2023-01-21T21:21:40.724Z,6.47
2023-01-21T21:24:08.790Z,6.60
2023-01-21T21:26:38.550Z,6.28
2023-01-21T21:29:14.275Z,4.75
2023-01-21T21:31:42.149Z,5.97
2023-01-21T21:34:11.451Z,5.95
2023-01-21T21:36:42.989Z,7.18
2023-01-21T21:39:10.739Z,5.87
2023-01-21T21:41:57.440Z,6.40
2023-01-21T21:44:25.311Z,5.40
2023-01-21T21:47:11.564Z,7.28
2023-01-21T21:49:39.261Z,5.03
2023-01-21T21:52:07.092Z,6.05
2023-01-21T21:54:35.411Z,6.15
2023-01-21T21:57:03.086Z,5.05
2023-01-21T21:59:30.703Z,5.40
2023-01-21T22:02:01.794Z,4.80
2023-01-21T22:04:29.633Z,5.68
2023-01-21T22:06:57.403Z,4.60
2023-01-21T22:09:25.649Z,6.05
2023-01-21T22:11:53.625Z,4.60
2023-01-21T22:14:21.351Z,5.70
2023-01-21T22:16:51.075Z,6.10
2023-01-21T22:19:18.902Z,5.90
2023-01-21T22:21:46.865Z,6.57
2023-01-21T22:24:14.553Z,4.87
2023-01-21T22:26:42.741Z,5.70
2023-01-21T22:29:10.700Z,5.95
2023-01-21T22:31:38.785Z,6.45
2023-01-21T22:34:06.753Z,5.95
2023-01-21T22:36:34.489Z,5.72
2023-01-21T22:39:02.630Z,5.60
2023-01-21T22:41:30.490Z,6.40
2023-01-21T22:43:58.380Z,5.93
2023-01-21T22:46:30.993Z,6.93
2023-01-21T22:48:59.470Z,5.25
2023-01-21T22:51:27.991Z,7.15
2023-01-21T22:53:55.927Z,6.53
2023-01-21T22:56:44.931Z,5.05
2023-01-21T22:59:12.980Z,5.93
2023-01-21T23:01:40.971Z,4.43
2023-01-21T23:04:09.917Z,5.10
2023-01-21T23:06:38.231Z,6.93
2023-01-21T23:09:09.185Z,6.05
2023-01-21T23:11:39.177Z,5.93
2023-01-21T23:14:09.573Z,5.97
2023-01-21T23:16:37.452Z,3.87
2023-01-21T23:19:05.232Z,6.62
2023-01-21T23:21:33.097Z,5.97
2023-01-21T23:24:00.895Z,6.25
2023-01-21T23:26:28.750Z,6.57
2023-01-21T23:28:57.873Z,7.45
2023-01-21T23:31:26.488Z,5.78
2023-01-21T23:33:56.850Z,5.53
2023-01-21T23:36:24.879Z,4.82
2023-01-21T23:38:52.683Z,6.97
2023-01-21T23:41:22.224Z,5.40
2023-01-21T23:43:49.899Z,6.35
2023-01-21T23:46:20.674Z,7.00
2023-01-21T23:48:48.912Z,6.47
2023-01-21T23:51:18.266Z,7.68
2023-01-21T23:53:48.747Z,8.35
2023-01-21T23:56:18.417Z,4.50
2023-01-21T23:58:46.252Z,7.85
